Nuuk Skibakke/Sisorarfiit

KL  EN  DA
ASIAQ
Weather Now GREENLAND SURVEY
Updated [WGT/WGST] Temperature [°C] Wind [m/s] Air pressure [hPa] Relative humidity [%] Precipitation [mm]
Present Wind chill Speed Max
27.09 02:00-1,8-5,52,9 ⇐3,897561n/a
27.09 01:00-1,8-4,31,9 ⇐3,497569n/a
27.09 00:00-1,40,00,7 ⇐1,397575n/a
26.09 23:00-2,10,00,9 ⇐1,697577n/a
26.09 22:00-2,00,01,2 ⇑1,697576n/a
26.09 21:00-2,1-3,81,3 ⇖2,597573n/a
26.09 20:00-1,50,00,6 ⇐1,597566n/a
26.09 19:00-0,10,01,0 ⇒2,397461n/a
26.09 18:000,3-1,71,7 ⇒2,997457n/a
26.09 17:000,5-1,92,0 ⇒3,697458n/a
26.09 16:00-0,10,01,3 ⇒3,897361n/a
26.09 15:000,0-4,44,2 ⇒8,197367n/a
26.09 14:000,1-2,62,3 ⇗7,097372n/a
26.09 13:00-0,30,00,9 ⇙2,697352n/a
26.09 12:00-1,00,00,3 ⇐1,097345n/a
26.09 11:00-1,20,00,4 ⇐1,697346n/a
26.09 10:00-3,50,00,8 ⇑1,897260n/a
26.09 09:00-2,9-5,51,8 ⇑2,597250n/a
26.09 08:00-3,9-7,52,3 ⇐3,197160n/a
26.09 07:00-3,6-7,12,4 ⇐3,697155n/a
26.09 06:00-3,6-7,42,6 ⇐3,997156n/a
26.09 05:00-3,4-7,42,9 ⇐4,497161n/a
26.09 04:00-3,5-8,43,7 ⇐5,597159n/a
26.09 03:00-3,9-9,64,6 ⇙6,597166n/a
26.09 02:00-3,5-8,94,4 ⇙6,097165n/a
Position: (64.19036111,-51.64752778)

[Back]